Date,TemperatureHighF,TemperatureAvgF,TemperatureLowF,DewpointHighF,DewpointAvgF,DewpointLowF,HumidityHigh,HumidityAvg,HumidityLow,PressureMaxIn,PressureMinIn,WindSpeedMaxMPH,WindSpeedAvgMPH,GustSpeedMaxMPH,PrecipitationSumIn
2013-1-1,63,56,44,62,55,43,98,95,91,30.10,29.89,6,1,16,1.31
2013-1-2,44,40,37,43,38,33,96,91,86,30.25,30.07,4,1,11,0.00
2013-1-3,48,39,33,34,30,27,92,71,46,30.39,30.21,5,1,11,0.00
2013-1-4,54,42,33,34,30,26,84,64,36,30.46,30.33,4,1,10,0.00
2013-1-5,50,43,39,42,37,33,95,79,58,30.38,30.22,2,0,7,0.09
2013-1-6,54,45,41,45,42,38,97,88,67,30.30,30.20,4,1,12,0.36
2013-1-7,57,45,34,40,38,33,95,77,48,30.33,30.17,4,0,10,0.01
2013-1-8,62,54,43,58,51,39,98,89,77,30.20,30.06,2,0,8,1.06
2013-1-9,67,62,57,66,61,56,100,98,98,30.17,30.07,2,0,9,2.56
2013-1-10,68,67,64,67,66,63,99,98,95,30.14,30.04,4,1,12,0.89
2013-1-11,68,65,62,68,65,62,100,98,96,30.07,29.97,3,0,0,0.31
2013-1-12,74,70,67,69,68,65,99,93,81,30.01,29.86,7,1,14,0.01
2013-1-13,72,69,55,70,67,54,96,93,82,29.90,29.78,10,2,26,0.93
2013-1-14,42,39,34,42,38,32,98,97,95,30.18,30.05,14,2,11,1.36
2013-1-15,40,38,35,40,38,34,98,98,97,30.10,29.97,3,1,9,0.83
2013-1-16,35,34,33,34,33,32,98,97,95,30.15,30.00,6,1,13,0.26
2013-1-17,51,40,33,37,34,31,97,82,57,30.43,30.12,8,2,17,0.05
2013-1-18,57,44,33,37,33,27,95,68,33,30.53,30.38,4,1,10,0.00
2013-1-19,61,46,34,47,39,-100,97,81,55,30.38,30.22,4,0,3,0.00
2013-1-20,65,50,40,45,40,34,98,71,34,30.26,30.12,2,0,7,0.01
2013-1-21,64,52,42,47,42,36,90,71,48,30.21,30.12,4,0,9,0.00
2013-1-22,61,48,38,44,37,29,82,67,48,30.35,30.19,3,0,11,0.00
2013-1-23,69,55,43,50,45,40,95,73,43,30.36,30.24,3,0,10,0.00
2013-1-24,71,60,51,60,55,49,96,84,66,30.31,30.17,3,0,9,0.00
2013-1-25,74,62,53,60,56,52,97,81,54,30.21,30.08,6,1,22,0.01
2013-1-26,71,61,56,61,58,55,98,90,65,30.22,30.14,1,0,6,0.00
2013-1-27,71,60,53,60,56,53,99,88,61,30.25,30.15,4,0,11,0.01
2013-1-28,74,64,58,64,61,57,97,91,68,30.23,30.08,2,0,10,0.00
2013-1-29,78,71,65,69,66,64,97,87,67,30.08,29.70,8,2,18,0.00
2013-1-30,72,54,36,68,47,31,97,77,46,30.15,29.60,11,3,27,0.85
2013-1-31,59,45,31,36,30,26,94,62,30,30.31,30.14,5,0,10,0.00
2013-2-1,59,47,41,36,33,28,78,59,34,30.41,30.28,6,1,11,0.00
2013-2-2,68,52,37,52,41,27,93,66,50,30.32,30.14,6,1,15,0.07
2013-2-3,66,53,44,49,39,30,97,65,27,30.27,30.10,6,1,13,0.00
2013-2-4,57,50,44,51,41,33,91,72,58,30.10,29.93,1,0,6,0.00
2013-2-5,71,60,53,60,56,51,98,87,56,30.01,29.91,1,0,5,0.00
2013-2-6,66,59,54,60,57,53,98,93,77,30.10,29.94,2,0,11,0.22
2013-2-7,67,59,54,59,57,53,98,92,73,29.94,29.80,5,1,12,1.11
2013-2-8,64,56,50,59,53,46,98,90,81,30.17,29.93,6,1,13,0.00
2013-2-9,63,52,40,55,48,38,95,87,72,30.23,30.02,3,1,10,0.00
2013-2-10,69,62,57,68,62,55,98,97,94,30.03,29.82,5,1,16,0.27
2013-2-11,61,54,51,60,53,50,99,98,94,30.15,29.94,8,1,20,0.18
2013-2-12,57,54,52,57,54,51,99,98,96,30.08,29.71,4,1,12,0.04
2013-2-13,53,47,38,52,43,36,98,85,69,30.06,29.83,6,2,17,0.01
2013-2-14,59,45,33,42,37,32,98,77,45,30.15,30.04,3,0,7,0.00
2013-2-15,63,49,36,45,38,34,96,69,40,30.18,30.06,5,1,11,0.00
2013-2-16,48,42,34,39,26,18,76,55,32,30.28,30.15,10,2,22,0.00
2013-2-17,59,44,30,39,31,23,85,61,39,30.34,30.18,4,0,14,0.00
2013-2-18,62,53,42,58,48,38,97,84,69,30.21,29.92,7,2,19,0.00
2013-2-19,60,54,43,59,40,28,98,65,32,30.23,29.92,7,2,14,0.00
2013-2-20,56,46,36,34,30,26,80,54,34,30.25,30.03,5,1,13,0.00
2013-2-21,68,57,45,67,49,28,98,76,49,30.03,29.71,7,2,19,0.00
2013-2-22,63,58,52,60,53,48,97,84,60,29.98,29.85,2,0,9,0.00
2013-2-23,61,54,46,52,49,42,96,85,67,29.96,29.84,4,1,10,0.00
2013-2-24,70,55,40,56,46,39,96,73,44,30.00,29.70,8,1,18,0.00
2013-2-25,65,60,54,63,59,45,100,95,71,29.75,29.40,7,1,22,0.00
2013-2-26,54,46,44,45,37,34,76,70,64,29.67,29.51,5,2,14,0.00
2013-2-28,43,41,40,38,33,-100,85,78,73,30.09,-32.77,0,-20,11,0.00
2013-3-1,53,43,34,36,32,28,93,68,42,30.17,30.05,8,2,18,0.00
2013-3-2,41,34,29,30,27,24,94,74,53,30.25,30.14,7,2,15,0.06
2013-3-3,54,39,26,32,26,21,89,62,33,30.28,30.10,4,0,11,0.40
2013-3-4,69,55,38,56,46,32,90,73,52,30.10,29.88,9,2,24,0.03
2013-3-5,69,60,47,62,50,32,92,72,40,30.18,29.87,10,2,17,0.04
2013-3-6,55,43,37,32,29,25,71,57,38,30.29,30.18,3,0,11,0.00
2013-3-7,62,47,34,40,34,30,86,62,36,30.35,30.21,2,0,7,0.00
2013-3-8,70,54,38,44,39,35,92,60,30,30.29,30.15,3,0,8,0.00
2013-3-9,68,59,49,58,51,42,91,76,61,30.15,29.91,4,1,14,0.00
2013-3-10,73,66,56,65,61,55,96,87,72,29.94,29.79,8,2,17,0.00
2013-3-11,57,49,42,54,44,38,97,85,51,30.02,29.86,8,2,16,0.00
2013-3-14,68,57,39,40,34,28,75,44,29,30.43,30.26,2,0,10,0.00
2013-3-15,74,59,42,49,42,35,94,58,30,30.27,30.07,4,1,13,0.00
2013-3-16,75,62,51,56,52,48,94,72,45,30.08,29.89,5,1,17,0.00
2013-3-17,77,64,55,64,58,52,97,82,57,29.94,29.77,4,1,16,0.00
2013-3-18,82,71,61,68,64,59,96,82,54,29.91,29.69,9,1,17,0.00
2013-3-19,73,60,47,58,43,37,92,56,31,30.03,29.90,7,2,14,0.00
2013-3-20,66,57,48,41,35,27,60,45,27,30.15,29.99,7,2,13,0.00
2013-3-21,63,52,43,43,34,26,68,51,33,30.06,29.83,4,0,8,0.00
2013-3-22,64,58,52,60,53,43,94,82,67,29.89,29.75,2,0,10,0.00
2013-3-23,70,64,62,67,63,60,99,97,90,29.80,29.55,2,0,8,0.00
2013-3-24,66,55,42,65,46,30,99,77,38,30.01,29.55,12,3,24,0.00
2013-3-25,54,42,33,31,26,19,82,55,29,30.27,30.01,10,3,20,0.00
2013-3-26,51,41,30,28,26,22,85,58,36,30.39,30.27,7,2,14,0.01
2013-3-27,62,45,32,35,29,26,81,57,29,30.43,30.26,4,0,8,0.01
2013-3-28,70,54,38,44,37,34,88,57,29,30.35,30.19,4,0,9,0.00
2013-3-29,74,59,42,54,46,38,96,67,33,30.28,30.13,3,0,13,0.00
2013-3-30,74,61,51,59,54,-100,97,80,47,30.16,29.95,5,1,17,0.08
2013-3-31,70,58,57,64,56,55,98,95,79,30.01,29.80,13,1,25,0.06
2013-4-1,74,62,54,59,54,48,99,79,41,30.07,29.91,3,0,7,0.02
2013-4-2,76,63,52,59,53,48,90,71,45,30.09,29.94,2,0,12,0.02
2013-4-3,62,53,48,57,51,46,97,93,77,30.01,29.80,7,2,17,0.00
2013-4-4,52,48,45,49,47,43,98,95,90,30.03,29.90,4,1,12,0.00
2013-4-5,65,52,44,51,46,42,96,83,57,30.17,30.02,5,2,15,0.00
2013-4-6,72,58,43,54,49,42,97,74,45,30.13,30.00,3,0,17,0.00
2013-4-7,74,63,53,60,56,52,98,80,54,30.07,29.93,3,0,12,0.00
2013-4-8,79,68,60,66,62,59,98,83,56,29.99,29.90,5,1,16,0.01
2013-4-9,82,74,69,72,69,66,94,85,67,29.98,29.87,7,2,18,0.01
2013-4-10,80,74,70,71,69,68,93,85,71,29.92,29.76,6,2,15,0.00
2013-4-11,76,62,48,71,60,47,97,92,76,29.83,29.60,7,2,21,0.21
2013-4-12,72,57,41,49,45,40,98,70,34,29.99,29.81,4,0,11,0.21
2013-4-13,79,65,52,54,46,42,80,53,28,30.02,29.83,3,0,10,0.00
2013-4-14,75,66,57,64,60,54,98,84,67,29.90,29.69,5,0,20,2.15
2013-4-15,80,68,59,73,65,58,99,92,74,29.95,29.78,2,0,11,0.02
2013-4-16,83,75,70,73,71,70,98,88,66,30.05,29.93,4,0,14,0.03
2013-4-17,83,75,70,73,70,68,96,86,65,30.05,29.90,5,1,17,0.00
2013-4-18,81,73,56,73,69,54,95,88,75,29.91,29.72,9,2,25,0.42
2013-4-19,58,50,45,55,42,38,99,76,49,30.17,29.83,8,2,20,0.57
2013-4-20,68,54,40,44,40,35,93,61,36,30.26,30.10,5,1,17,0.00
2013-4-21,72,59,46,49,43,40,82,58,35,30.23,30.08,4,0,10,0.00
2013-4-22,78,64,50,61,52,45,93,69,42,30.13,29.97,4,0,11,0.00
2013-4-23,79,70,63,67,64,61,94,83,62,30.05,29.92,2,1,15,0.00
2013-4-24,68,61,52,66,59,49,98,94,88,30.19,29.96,7,1,13,0.28
2013-4-25,67,56,49,52,48,40,96,75,40,30.31,30.18,5,1,12,0.28
2013-4-26,77,64,51,64,55,44,88,74,53,30.26,30.16,3,0,9,0.00
2013-4-27,78,70,63,69,65,61,98,87,69,30.16,29.98,4,0,13,0.00
2013-4-28,73,68,61,69,66,60,98,92,75,30.05,29.90,5,0,14,0.48
2013-4-29,82,68,55,65,59,52,99,77,40,29.96,29.84,1,0,7,0.00
2013-4-30,75,66,62,69,64,61,98,93,78,29.90,29.83,4,0,15,1.27
2013-5-1,78,67,64,69,65,62,98,94,73,29.89,29.81,3,0,11,0.20
2013-5-2,73,66,63,68,64,62,98,95,81,29.94,29.83,3,0,7,0.03
2013-5-3,65,54,41,64,53,40,98,94,84,30.01,29.85,7,2,16,0.08
2013-5-4,69,52,37,49,42,36,98,73,37,30.00,29.84,5,0,13,0.09
2013-5-5,58,52,45,50,44,40,94,77,56,30.01,29.84,8,2,19,0.00
2013-5-6,71,57,45,56,49,43,94,77,52,30.01,29.91,6,1,16,0.00
2013-5-7,77,64,52,59,56,51,98,76,46,30.03,29.94,4,0,10,0.00
2013-5-8,81,68,55,63,59,54,98,76,48,30.08,29.99,2,0,7,0.00
2013-5-9,81,70,59,67,63,58,98,79,53,30.08,29.98,2,0,12,0.00
2013-5-10,76,68,62,67,64,61,97,87,71,30.03,29.76,5,0,15,0.00
2013-5-11,76,68,62,69,64,61,98,89,68,30.03,29.91,3,0,10,0.02
2013-5-12,76,65,56,62,56,46,98,74,56,30.15,30.02,6,1,14,0.00
2013-5-13,78,63,48,56,48,42,85,59,35,30.28,30.14,3,0,8,0.00
2013-5-14,84,68,55,61,57,53,92,70,41,30.25,30.11,2,0,10,0.00
2013-5-15,81,69,57,64,60,55,97,75,49,30.16,29.99,2,0,8,0.00
2013-5-16,79,70,59,67,63,57,97,82,58,30.01,29.86,3,0,12,0.00
2013-5-17,84,75,69,73,70,67,97,85,68,29.98,29.90,2,0,10,0.00
2013-5-18,86,78,72,74,71,70,96,83,63,30.02,29.93,2,0,10,0.00
2013-5-19,86,77,69,74,72,68,98,85,64,29.98,29.89,3,0,10,0.00
2013-5-20,87,79,73,75,73,71,96,82,64,29.97,29.85,3,1,14,0.00
2013-5-21,87,78,72,74,72,68,97,82,58,29.93,29.76,3,0,11,0.00
2013-5-22,80,71,65,72,68,65,98,90,67,29.93,29.84,4,0,12,1.83
2013-5-23,87,77,66,75,71,65,99,82,57,30.02,29.92,1,0,6,0.00
2013-5-24,83,76,70,71,68,65,94,79,62,30.14,30.00,4,1,9,0.00
2013-5-25,84,72,61,66,60,54,82,67,48,30.22,30.10,2,0,7,0.00
2013-5-26,82,72,62,69,63,55,95,75,42,30.16,30.07,1,0,6,0.00
2013-5-27,86,75,62,71,66,61,95,76,52,30.09,29.98,3,0,11,0.00
2013-5-28,84,75,65,70,66,63,95,76,57,30.04,29.94,3,0,12,0.00
2013-5-29,82,75,69,76,71,64,97,89,74,29.99,29.89,5,1,15,0.06
2013-5-30,84,76,73,76,73,72,98,89,70,29.97,29.89,4,1,15,0.13
2013-5-31,86,78,73,77,74,72,98,87,68,29.98,29.89,3,1,14,0.18
2013-6-1,88,80,74,76,74,72,96,84,63,29.94,29.85,2,0,7,0.00
2013-6-2,82,74,66,74,70,65,98,89,69,30.01,29.83,6,1,14,1.50
2013-6-3,86,78,71,74,72,70,97,82,64,29.91,29.81,4,1,9,0.00
2013-6-4,90,79,70,76,73,69,97,82,56,29.91,29.81,1,0,7,0.00
2013-6-5,86,78,72,78,74,68,98,86,62,29.90,29.74,5,0,9,0.31
2013-6-6,86,75,70,76,72,68,98,89,70,29.83,29.73,4,1,18,0.28
2013-6-7,83,74,68,72,69,67,97,86,61,29.87,29.75,4,0,12,0.29
2013-6-8,86,74,67,76,69,66,98,85,62,29.94,29.85,4,0,9,0.86
2013-6-9,87,75,68,75,71,67,99,88,60,29.95,29.84,2,0,11,0.14
2013-6-10,90,78,69,76,72,68,98,85,56,29.99,29.92,3,0,9,0.15
2013-6-11,91,80,73,77,74,72,99,85,57,30.07,29.97,1,0,7,0.00
2013-6-12,91,80,74,77,74,71,98,83,52,30.06,29.96,2,0,6,0.00
2013-6-13,90,81,73,77,74,72,98,82,59,30.02,29.85,2,0,10,0.00
2013-6-14,88,80,74,77,73,66,95,80,58,29.92,29.84,4,1,10,0.00
2013-6-15,92,81,68,74,69,64,89,70,47,29.98,29.89,2,0,6,0.00
2013-6-16,90,81,72,80,75,71,97,83,64,30.02,29.92,2,0,6,0.00
2013-6-17,90,82,74,76,74,70,96,79,54,29.99,29.86,5,1,14,0.00
2013-6-18,88,79,70,76,73,68,98,83,60,29.97,29.85,8,1,16,0.92
2013-6-19,85,76,70,76,72,69,98,89,68,30.01,29.91,2,0,9,1.60
2013-6-20,90,78,70,76,72,69,98,84,57,30.08,29.98,2,0,8,1.27
2013-6-21,90,79,69,76,72,68,98,80,53,30.09,30.01,2,0,7,1.27
2013-6-22,90,78,71,76,72,69,98,82,54,30.08,29.96,2,0,10,1.34
2013-6-23,90,78,70,76,72,69,99,83,55,30.05,29.96,2,0,8,1.35
2013-6-24,87,76,72,77,73,71,98,90,62,30.09,30.00,3,0,9,0.55
2013-6-25,88,79,72,79,75,71,99,88,66,30.07,29.96,2,0,7,0.03
2013-6-26,91,80,72,77,74,71,98,82,55,30.03,29.91,2,0,7,0.03
2013-6-27,91,82,73,78,75,72,97,81,58,29.99,29.88,3,0,10,0.00
2013-6-28,90,80,71,79,75,68,96,85,63,29.90,29.72,8,0,21,0.28
2013-6-29,86,74,69,78,72,68,98,92,73,29.81,29.66,8,0,18,0.14
2013-6-30,87,79,68,73,67,59,98,71,40,29.79,29.69,6,1,15,0.14
2013-7-1,84,76,65,68,66,64,94,72,51,29.90,29.77,5,1,12,0.00
2013-7-2,85,76,66,71,66,64,94,74,53,29.98,29.88,2,0,7,0.00
2013-7-3,84,75,68,72,69,64,95,82,62,30.00,29.92,4,0,8,0.03
2013-7-4,86,76,68,76,71,67,98,85,61,29.96,29.88,3,0,8,0.03
2013-7-5,81,74,69,76,71,68,96,91,83,29.99,29.90,2,0,12,0.06
2013-7-6,86,75,69,76,71,68,98,89,67,30.00,29.90,2,0,12,0.06
2013-7-7,86,76,73,78,74,72,98,92,71,30.07,29.96,2,0,8,0.24
2013-7-8,90,77,71,77,73,71,99,88,58,30.13,30.02,3,0,9,1.00
2013-7-9,90,80,71,78,74,71,99,86,60,30.16,30.03,1,0,6,0.02
2013-7-10,91,82,74,79,75,74,98,83,61,30.07,29.92,3,0,10,0.02
2013-7-11,87,77,70,78,74,69,98,91,68,30.00,29.87,10,0,23,1.61
2013-7-12,90,80,70,77,71,67,100,77,47,29.92,29.83,5,1,9,1.62
2013-7-13,86,78,70,74,70,66,90,77,62,29.92,29.84,3,0,8,0.00
2013-7-14,86,75,69,76,71,68,97,88,65,29.99,29.88,4,0,12,0.00
2013-7-15,86,76,69,77,72,68,97,88,63,30.09,29.97,2,0,9,0.02
2013-7-16,84,76,71,76,73,70,97,90,74,30.16,30.06,4,0,11,0.03
2013-7-17,89,79,72,78,74,71,98,85,62,30.20,30.08,3,0,10,0.00
2013-7-18,88,77,70,74,71,67,98,85,53,30.15,29.98,6,0,13,0.14
2013-7-19,89,78,70,76,72,69,98,84,54,30.05,29.91,2,0,10,0.09
2013-7-20,88,75,70,76,72,69,99,89,60,29.96,29.89,4,0,9,0.09
2013-7-21,85,77,72,76,73,71,98,90,71,30.01,29.94,3,0,9,0.24
2013-7-22,89,77,72,78,74,71,98,91,67,30.02,29.94,8,1,16,0.45
2013-7-23,90,81,75,78,76,74,98,84,60,30.02,29.86,5,1,13,0.45
2013-7-24,87,79,72,76,74,70,97,85,64,29.93,29.84,10,1,24,0.18
2013-7-25,88,77,71,76,72,68,99,86,58,30.01,29.88,3,0,12,0.18
2013-7-26,89,78,68,76,70,66,94,77,57,30.04,29.92,2,0,6,0.00
2013-7-27,81,76,73,78,74,72,98,95,83,29.92,29.81,2,0,8,1.12
2013-7-28,87,78,71,76,73,70,98,86,64,29.98,29.85,2,0,7,1.13
2013-7-29,91,83,73,78,75,72,97,78,58,30.07,29.97,1,0,6,0.00
2013-7-30,92,82,74,79,76,73,98,82,58,30.11,30.01,1,0,8,0.00
2013-7-31,92,83,76,79,76,74,95,79,57,30.07,29.92,3,0,8,0.00
2013-8-1,92,80,74,79,75,72,98,87,62,30.00,29.86,5,0,10,1.23
2013-8-2,92,80,72,78,74,72,99,83,55,29.98,29.89,3,0,8,1.23
2013-8-3,91,82,75,81,76,73,97,83,57,30.03,29.95,1,0,6,0.00
2013-8-4,94,84,75,79,76,72,98,79,52,30.06,29.93,3,0,7,0.00
2013-8-5,93,83,75,79,76,73,96,80,54,30.02,29.90,3,0,9,0.00
2013-8-6,94,85,75,78,75,71,97,74,50,29.97,29.85,2,0,7,0.00
2013-8-7,95,84,76,78,75,72,97,76,49,29.95,29.83,3,0,8,0.00
2013-8-8,94,83,75,79,76,73,97,79,53,29.93,29.83,4,0,9,0.00
2013-8-9,92,80,76,78,75,73,96,87,58,29.99,29.89,6,0,12,0.01
2013-8-10,94,82,75,79,74,70,98,81,51,30.06,29.95,2,0,10,0.01
2013-8-11,90,80,74,77,75,73,97,84,58,30.08,30.01,5,0,14,0.00
2013-8-12,91,78,73,82,74,70,97,88,56,30.07,29.96,7,0,16,0.56
2013-8-13,87,76,71,81,74,70,99,94,75,30.01,29.89,9,0,22,1.69
2013-8-14,83,74,71,77,73,70,99,96,81,29.98,29.88,2,0,8,0.16
2013-8-15,86,77,70,75,72,69,98,86,61,29.98,29.89,2,0,5,0.01
2013-8-16,87,77,69,75,71,67,98,83,58,29.97,29.87,7,0,19,2.95
2013-8-17,81,73,68,73,70,67,100,91,74,29.97,29.91,4,0,10,0.00
2013-8-18,78,72,68,73,70,68,98,93,79,30.00,29.93,5,1,13,0.01
2013-8-19,86,76,72,75,72,70,98,89,67,30.03,29.94,1,0,8,0.00
2013-8-20,90,77,70,76,73,70,99,89,56,30.04,29.95,2,0,8,0.07
2013-8-21,86,77,71,77,73,70,99,90,68,30.10,30.01,3,0,9,0.00
2013-8-22,90,80,72,77,74,71,99,82,57,30.07,29.93,2,0,8,0.00
2013-8-23,89,79,72,76,74,71,99,84,60,29.99,29.89,4,1,12,0.00
2013-8-24,86,76,71,76,73,70,98,90,69,30.08,29.95,4,0,12,0.00
2013-8-25,85,76,70,78,73,69,98,91,71,30.15,30.06,3,0,10,0.12
2013-8-26,87,78,71,75,71,68,98,82,55,30.17,30.07,3,0,10,0.01
2013-8-27,84,75,66,70,66,64,94,74,52,30.11,30.01,3,0,9,0.00
2013-8-28,85,78,67,70,67,64,94,70,53,30.08,29.99,2,0,7,0.00
2013-8-29,89,76,66,72,67,64,95,76,49,30.06,29.95,2,0,8,0.00
2013-8-30,90,78,68,76,70,67,97,79,50,30.01,29.89,2,0,6,0.00
2013-8-31,92,80,71,77,72,69,96,80,53,29.95,29.82,2,0,7,0.00
2013-9-1,92,80,72,77,74,71,97,81,53,29.92,29.81,3,0,8,0.00
2013-9-2,90,80,73,79,74,72,97,84,59,29.95,29.82,2,0,8,0.00
2013-9-3,90,79,74,80,75,73,98,90,62,29.94,29.83,2,0,9,0.14
2013-9-4,91,80,71,77,74,71,98,82,56,30.04,29.92,2,0,9,0.00
2013-9-5,89,78,72,77,74,71,98,87,63,30.08,29.99,2,0,7,0.00
2013-9-6,89,79,72,77,73,70,99,84,56,30.08,29.95,2,0,7,0.00
2013-9-7,91,80,70,75,72,69,98,79,51,30.03,29.92,1,0,5,0.00
2013-9-8,90,79,69,74,70,68,98,77,48,29.99,29.89,2,0,7,0.00
2013-9-9,88,74,69,74,70,68,97,87,60,30.02,29.92,1,0,4,0.00
2013-9-10,90,80,71,76,72,69,97,79,56,30.08,29.99,7,0,0,0.00
2013-9-11,90,80,72,74,72,68,96,77,50,30.09,29.99,5,0,4,0.00
2013-9-12,91,79,70,74,69,65,98,74,44,30.03,29.87,4,0,10,0.00
2013-9-13,92,78,71,78,71,68,97,83,48,29.92,29.77,4,0,8,0.03
2013-9-14,88,77,67,72,66,61,98,71,44,29.95,29.85,3,0,11,0.01
2013-9-15,89,77,65,73,67,60,89,73,55,30.03,29.94,5,0,2,0.00
2013-9-16,91,79,71,75,72,68,97,80,49,30.06,29.96,4,0,12,0.00
2013-9-17,91,80,70,71,68,63,95,69,40,30.06,29.92,4,0,11,0.00
2013-9-18,89,77,71,75,71,66,97,82,57,30.05,29.93,3,0,9,0.05
2013-9-19,88,76,70,77,73,70,98,90,64,30.02,29.91,6,0,14,1.21
2013-9-20,88,78,72,77,75,72,99,92,66,29.97,29.76,2,0,14,0.14
2013-9-21,77,71,68,76,71,67,99,98,96,29.77,29.72,7,1,13,3.98
2013-9-22,79,69,62,69,61,55,99,77,44,29.82,29.74,6,1,11,0.01
2013-9-23,86,75,62,76,68,57,95,80,68,29.83,29.75,2,0,7,0.00
2013-9-24,79,75,70,78,74,69,98,96,88,29.82,29.74,5,0,12,0.48
2013-9-25,86,74,66,73,66,57,99,79,38,29.81,29.73,4,0,10,0.00
2013-9-26,85,73,62,69,64,61,98,76,50,29.92,29.79,3,0,9,0.00
2013-9-27,84,75,68,72,69,65,99,84,63,30.00,29.91,2,0,6,0.00
2013-9-28,83,73,65,68,66,62,97,79,54,30.05,29.96,2,0,5,0.00
2013-9-29,75,69,64,72,67,61,98,93,85,30.02,29.92,1,0,4,0.05
2013-9-30,81,72,66,74,69,64,98,91,73,29.93,29.86,2,0,9,0.01
2013-10-1,82,73,68,74,70,67,99,91,72,30.01,29.92,2,0,9,0.00
2013-10-2,83,75,71,75,72,69,98,91,71,30.03,29.93,2,0,7,0.17
2013-10-3,85,76,70,76,72,70,99,89,65,30.01,29.90,2,0,9,0.00
2013-10-4,86,76,71,74,72,70,99,88,63,30.01,29.91,4,0,11,0.00
2013-10-5,83,76,71,77,73,70,99,90,75,29.98,29.85,2,0,13,0.15
2013-10-6,72,70,66,72,68,60,99,93,75,29.88,29.82,5,1,10,0.07
2013-10-7,72,61,53,57,53,50,91,75,56,30.04,29.93,6,1,13,0.00
2013-10-8,74,62,53,59,54,51,92,75,49,30.04,29.97,3,0,11,0.00
2013-10-9,80,66,53,67,60,52,98,80,53,30.08,29.99,2,0,5,0.00
2013-10-10,79,69,65,69,66,64,99,91,66,30.09,29.96,2,0,6,0.00
2013-10-11,83,72,65,72,68,65,99,91,62,30.03,29.92,1,0,6,0.01
2013-10-12,87,74,65,74,69,64,99,86,56,30.05,29.95,2,0,6,0.00
2013-10-13,85,75,68,74,70,67,99,86,59,30.14,30.02,3,0,6,0.00
2013-10-14,82,72,65,68,66,64,95,83,55,30.10,29.99,2,0,8,0.00
2013-10-15,83,72,62,70,66,61,100,82,56,30.03,29.90,4,0,0,0.00
2013-10-16,80,74,69,72,70,68,98,89,73,29.96,29.85,4,0,9,0.00
2013-10-17,72,64,57,71,63,56,99,96,92,29.99,29.87,2,0,7,0.13
2013-10-18,70,61,53,61,56,52,99,86,62,30.06,29.90,5,0,13,0.01
2013-10-19,70,62,54,61,58,52,98,87,66,30.02,29.89,4,0,10,0.24
2013-10-20,72,58,48,58,51,46,95,80,52,30.07,29.96,2,0,8,0.00
2013-10-21,71,61,50,63,57,49,96,88,71,30.04,29.93,1,0,5,0.00
2013-10-22,72,63,56,63,59,54,98,88,67,29.99,29.92,4,0,10,0.00
2013-10-23,71,59,50,54,48,43,96,71,38,30.12,29.99,5,1,12,0.00
2013-10-24,77,61,47,60,51,44,94,71,45,30.22,30.08,3,0,10,0.00
2013-10-25,64,54,47,53,43,38,87,68,43,30.39,30.21,6,2,14,0.00
2013-10-26,73,56,41,52,44,38,90,67,38,30.30,30.13,1,0,8,0.00
2013-10-27,70,61,52,61,56,47,98,84,67,30.13,30.02,1,0,7,0.00
2013-10-28,80,70,60,67,63,59,96,82,59,30.16,30.03,2,0,6,0.00
2013-10-29,77,68,60,67,63,60,99,85,62,30.20,30.11,2,0,10,0.00
2013-10-30,75,68,62,68,65,61,98,91,79,30.17,29.99,2,0,8,0.00
2013-10-31,75,69,64,71,68,64,99,96,88,29.99,29.71,7,1,20,1.22
2013-11-1,72,63,52,63,56,50,98,82,49,29.92,29.80,4,0,11,0.00
2013-11-2,67,58,50,52,48,43,97,71,42,30.16,29.91,6,1,16,0.00
2013-11-3,64,52,43,48,44,40,95,75,50,30.24,30.10,4,0,12,0.00
2013-11-4,70,56,44,58,51,43,96,83,61,30.25,30.13,2,0,7,0.00
2013-11-5,73,63,58,62,58,54,96,83,67,30.21,30.08,4,0,13,0.00
2013-11-6,78,66,55,71,63,54,98,92,74,30.11,30.00,6,0,13,0.18
2013-11-7,64,52,44,63,46,39,100,80,49,30.33,30.08,8,3,16,0.01
2013-11-8,61,51,41,44,40,36,86,68,45,30.35,30.19,7,1,15,0.00
2013-11-9,68,56,45,55,48,40,87,74,58,30.24,30.15,2,0,6,0.00
2013-11-10,70,59,52,56,51,47,92,75,43,30.27,30.17,3,0,9,0.00
2013-11-11,74,60,51,54,50,46,89,71,45,30.24,30.12,1,0,5,0.00
2013-11-12,65,50,36,54,43,29,86,79,67,30.50,30.17,9,3,22,0.00
2013-11-13,53,40,31,32,26,22,79,60,34,30.55,30.41,7,2,15,0.00
2013-11-14,62,48,32,47,38,25,80,68,55,30.41,30.13,2,0,8,0.00
2013-11-15,67,58,51,62,55,46,98,91,75,30.14,29.97,2,0,8,0.48
2013-11-16,75,67,60,69,65,60,99,93,80,30.03,29.91,3,0,9,0.01
2013-11-17,78,72,68,74,71,67,99,96,86,29.93,29.81,2,0,12,0.02
2013-11-18,76,66,55,72,48,35,99,55,29,30.10,29.92,9,2,25,0.01
2013-11-19,61,52,42,41,34,27,76,53,27,30.16,30.05,6,2,17,0.00
2013-11-20,70,53,40,49,40,32,92,64,36,30.11,30.01,2,0,9,0.00
2013-11-21,66,60,51,64,59,49,98,95,90,30.19,30.09,3,0,10,0.00
2013-11-22,70,65,62,66,64,62,99,97,86,30.26,30.12,5,0,11,0.20
2013-11-23,62,52,42,62,51,38,99,96,86,30.36,30.16,7,2,17,0.09
2013-11-24,48,40,34,36,28,25,82,64,44,30.42,30.30,8,3,21,0.00
2013-11-25,44,42,37,44,38,25,98,87,62,30.31,29.91,5,1,13,0.71
2013-11-26,47,42,37,47,41,36,100,97,95,30.07,29.75,8,3,19,1.15
2013-11-27,43,36,26,36,28,24,95,76,47,30.41,30.06,9,2,18,0.00
2013-11-28,46,34,25,34,26,22,92,76,44,30.49,30.38,2,0,10,0.00
2013-11-29,59,42,28,34,29,26,93,63,32,30.54,30.41,4,0,8,0.00
2013-11-30,66,47,32,38,32,28,86,60,28,30.44,30.24,1,0,3,0.00
2013-12-1,68,54,38,55,47,35,95,78,55,30.25,29.96,2,0,6,0.00
2013-12-2,71,61,52,63,57,49,98,88,74,29.97,29.70,2,0,10,0.00
2013-12-3,76,67,61,66,64,60,99,90,68,29.76,29.65,4,1,14,0.00
2013-12-4,78,71,67,69,68,66,97,90,72,29.89,29.76,4,1,12,0.00
2013-12-5,79,73,70,71,70,69,97,91,76,29.97,29.86,3,0,12,0.01
2013-12-6,73,48,35,71,48,34,99,97,87,30.24,29.88,6,2,14,0.20
2013-12-7,36,34,31,35,32,30,98,95,91,30.36,30.23,6,2,15,0.01
2013-12-8,46,41,36,45,40,35,99,99,98,30.25,30.01,2,0,5,3.72
2013-12-9,46,44,38,46,44,37,100,98,95,30.15,30.05,3,0,9,0.11
2013-12-10,46,38,33,37,33,30,98,85,62,30.39,30.14,8,2,21,0.28
2013-12-11,55,43,32,48,37,29,95,80,62,30.44,30.31,2,0,8,0.00
2013-12-12,53,40,32,34,28,22,88,65,31,30.53,30.36,5,2,12,0.00
2013-12-13,57,45,32,53,38,24,92,75,59,30.36,29.90,3,0,8,0.00
2013-12-14,67,56,42,62,54,40,100,91,77,30.08,29.80,7,1,12,0.59
2013-12-15,47,40,31,40,34,30,95,81,65,30.30,30.08,8,2,20,0.00
2013-12-16,60,42,28,40,34,28,98,74,38,30.34,30.22,1,0,10,0.00
2013-12-17,63,47,34,43,38,32,96,73,42,30.33,30.22,2,0,8,0.00
2013-12-18,65,50,37,44,39,-100,95,70,43,30.36,30.19,2,0,8,0.00
2013-12-19,69,58,45,59,52,37,93,82,68,30.19,30.00,2,0,13,0.00
2013-12-20,74,67,60,68,64,57,96,91,81,30.02,29.90,3,1,14,0.09
2013-12-21,76,71,58,70,67,56,97,89,80,29.90,29.66,10,3,19,0.64
2013-12-22,63,58,50,60,56,49,99,95,82,30.16,29.76,3,0,10,0.51
2013-12-23,50,39,30,48,35,28,96,85,69,30.48,30.15,7,2,15,0.00
2013-12-24,48,36,28,30,27,26,92,72,47,30.53,30.38,7,1,12,0.00
2013-12-25,47,36,27,32,27,24,89,70,45,30.41,30.29,1,0,5,0.00
2013-12-26,56,45,34,39,33,27,78,63,46,30.40,30.28,4,1,11,0.00
2013-12-27,52,45,39,36,34,30,85,66,45,30.43,30.27,3,0,10,0.00
2013-12-28,47,45,42,46,42,32,98,90,57,30.29,29.94,2,0,8,0.74
2013-12-29,58,48,42,48,44,41,98,86,56,30.11,29.96,2,0,7,0.01
2013-12-30,52,46,39,47,43,36,97,89,79,30.33,30.08,3,0,9,0.00
2013-12-31,45,40,35,38,36,33,92,84,71,30.42,30.29,3,0,8,0.00
2014-1-1,55,48,40,52,46,38,98,92,86,30.30,30.01,1,0,4,0.07
2014-1-2,56,47,32,55,40,24,100,79,53,30.35,29.94,10,3,22,0.10